createdAt,value
2023-01-05T00:01:55.098Z,100.00
2023-01-05T00:04:22.565Z,100.00
2023-01-05T00:06:49.448Z,100.00
2023-01-05T00:09:18.521Z,100.00
2023-01-05T00:12:03.871Z,100.00
2023-01-05T00:14:51.779Z,100.00
2023-01-05T00:17:41.073Z,100.00
2023-01-05T00:20:37.191Z,100.00
2023-01-05T00:23:05.059Z,100.00
2023-01-05T00:25:36.829Z,100.00
2023-01-05T00:28:04.214Z,100.00
2023-01-05T00:30:44.890Z,100.00
2023-01-05T00:33:15.663Z,100.00
2023-01-05T00:35:42.962Z,100.00
2023-01-05T00:38:10.579Z,100.00
2023-01-05T00:40:37.481Z,100.00
2023-01-05T00:43:04.615Z,100.00
2023-01-05T00:45:31.670Z,100.00
2023-01-05T00:47:58.531Z,100.00
2023-01-05T00:50:25.448Z,100.00
2023-01-05T00:52:52.294Z,100.00
2023-01-05T00:55:19.210Z,100.00
2023-01-05T00:57:46.355Z,100.00
2023-01-05T01:00:17.320Z,100.00
2023-01-05T01:02:44.431Z,100.00
2023-01-05T01:05:12.545Z,100.00
2023-01-05T01:07:39.478Z,100.00
2023-01-05T01:10:08.706Z,100.00
2023-01-05T01:12:35.775Z,100.00
2023-01-05T01:15:02.848Z,100.00
2023-01-05T01:17:32.304Z,100.00
2023-01-05T01:19:59.329Z,100.00
2023-01-05T01:22:26.319Z,100.00
2023-01-05T01:24:53.164Z,100.00
2023-01-05T01:27:20.568Z,100.00
2023-01-05T01:29:47.505Z,100.00
2023-01-05T01:32:14.319Z,100.00
2023-01-05T01:37:08.121Z,100.00
2023-01-05T01:39:35.084Z,100.00
2023-01-05T01:42:01.947Z,100.00
2023-01-05T01:44:47.663Z,100.00
2023-01-05T01:47:54.965Z,100.00
2023-01-05T01:50:46.586Z,100.00
2023-01-05T01:53:48.339Z,100.00
2023-01-05T01:56:18.891Z,100.00
2023-01-05T01:58:45.892Z,100.00
2023-01-05T02:01:13.187Z,100.00
2023-01-05T02:03:40.697Z,100.00
2023-01-05T02:06:08.198Z,100.00
2023-01-05T02:08:35.314Z,100.00
2023-01-05T02:11:17.012Z,100.00
2023-01-05T02:13:58.682Z,99.81
2023-01-05T02:16:43.943Z,100.00
2023-01-05T02:20:22.279Z,99.22
2023-01-05T02:23:36.976Z,99.64
2023-01-05T02:26:30.620Z,100.00
2023-01-05T02:29:34.432Z,100.00
2023-01-05T02:32:16.324Z,100.00
2023-01-05T02:35:02.725Z,100.00
2023-01-05T02:40:10.765Z,100.00
2023-01-05T02:42:39.757Z,100.00
2023-01-05T02:45:08.782Z,100.00
2023-01-05T02:47:44.648Z,100.00
2023-01-05T02:50:20.723Z,100.00
2023-01-05T02:53:09.025Z,100.00
2023-01-05T02:55:43.013Z,100.00
2023-01-05T02:58:24.683Z,100.00
2023-01-05T03:00:58.810Z,100.00
2023-01-05T03:03:41.917Z,100.00
2023-01-05T03:06:17.416Z,100.00
2023-01-05T03:08:52.797Z,100.00
2023-01-05T03:11:38.443Z,100.00
2023-01-05T03:14:24.687Z,100.00
2023-01-05T03:16:53.360Z,100.00
2023-01-05T03:19:36.667Z,100.00
2023-01-05T03:22:44.263Z,100.00
2023-01-05T03:25:32.484Z,100.00
2023-01-05T03:28:19.581Z,100.00
2023-01-05T03:31:18.758Z,100.00
2023-01-05T03:34:23.315Z,100.00
2023-01-05T03:36:57.893Z,100.00
2023-01-05T03:39:27.651Z,100.00
2023-01-05T03:41:55.001Z,100.00
2023-01-05T03:44:22.572Z,99.32
2023-01-05T03:46:49.564Z,99.14
2023-01-05T03:49:17.677Z,99.42
2023-01-05T03:51:44.491Z,98.76
2023-01-05T03:54:11.458Z,98.55
2023-01-05T03:56:38.511Z,96.15
2023-01-05T03:59:05.373Z,94.36
2023-01-05T04:01:32.316Z,90.60
2023-01-05T04:03:59.311Z,89.09
2023-01-05T04:06:26.214Z,88.79
2023-01-05T04:08:53.180Z,87.95
2023-01-05T04:11:23.858Z,87.44
2023-01-05T04:13:51.153Z,87.28
2023-01-05T04:16:18.624Z,85.78
2023-01-05T04:18:45.788Z,85.38
2023-01-05T04:21:12.664Z,85.05
2023-01-05T04:23:39.576Z,83.46
2023-01-05T04:26:06.779Z,82.92
2023-01-05T04:28:33.671Z,81.93
2023-01-05T04:31:00.472Z,83.03
2023-01-05T04:33:27.776Z,82.05
2023-01-05T04:35:54.751Z,82.11
2023-01-05T04:38:21.623Z,82.70
2023-01-05T04:40:53.389Z,82.15
2023-01-05T04:43:20.314Z,81.91
2023-01-05T04:45:48.748Z,81.59
2023-01-05T04:48:16.145Z,81.88
2023-01-05T04:50:43.409Z,80.83
2023-01-05T04:53:10.584Z,80.14
2023-01-05T04:55:37.553Z,79.54
2023-01-05T04:58:08.358Z,80.16
2023-01-05T05:00:38.860Z,79.87
2023-01-05T05:03:06.074Z,79.29
2023-01-05T05:05:33.098Z,79.28
2023-01-05T05:08:00.138Z,78.89
2023-01-05T05:10:26.978Z,79.85
2023-01-05T05:12:53.905Z,79.10
2023-01-05T05:15:20.803Z,79.00
2023-01-05T05:17:48.412Z,79.05
2023-01-05T05:20:15.565Z,78.83
2023-01-05T05:22:42.400Z,79.36
2023-01-05T05:25:09.692Z,78.95
2023-01-05T05:27:36.654Z,79.44
2023-01-05T05:30:04.695Z,79.77
2023-01-05T05:32:31.771Z,79.23
2023-01-05T05:34:58.622Z,79.21
2023-01-05T05:37:25.712Z,80.10
2023-01-05T05:39:52.556Z,79.64
2023-01-05T05:42:19.463Z,80.41
2023-01-05T05:44:46.274Z,80.10
2023-01-05T05:47:13.143Z,80.28
2023-01-05T05:49:39.993Z,80.56
2023-01-05T05:52:07.689Z,79.74
2023-01-05T05:54:34.483Z,79.78
2023-01-05T05:57:01.812Z,79.30
2023-01-05T05:59:28.608Z,79.68
2023-01-05T06:01:55.606Z,79.04
2023-01-05T06:04:22.551Z,80.09
2023-01-05T06:06:49.431Z,79.30
2023-01-05T06:09:16.283Z,79.48
2023-01-05T06:11:43.419Z,79.93
2023-01-05T06:14:10.784Z,80.38
2023-01-05T06:16:37.609Z,79.97
2023-01-05T06:19:04.516Z,80.09
2023-01-05T06:21:31.366Z,80.74
2023-01-05T06:23:58.240Z,80.33
2023-01-05T06:26:25.081Z,80.60
2023-01-05T06:28:51.911Z,79.70
2023-01-05T06:31:18.761Z,79.91
2023-01-05T06:33:45.637Z,80.19
2023-01-05T06:36:12.574Z,79.37
2023-01-05T06:38:39.438Z,80.32
2023-01-05T06:41:06.331Z,80.14
2023-01-05T06:43:33.172Z,80.33
2023-01-05T06:46:00.113Z,80.73
2023-01-05T06:48:27.078Z,81.16
2023-01-05T06:50:53.956Z,80.21
2023-01-05T06:53:20.990Z,80.36
2023-01-05T06:55:47.902Z,80.80
2023-01-05T06:58:14.745Z,81.46
2023-01-05T07:00:41.714Z,81.97
2023-01-05T07:03:13.611Z,81.29
2023-01-05T07:05:41.859Z,82.89
2023-01-05T07:08:08.986Z,82.47
2023-01-05T07:10:36.183Z,82.50
2023-01-05T07:13:03.152Z,82.38
2023-01-05T07:15:30.378Z,82.19
2023-01-05T07:17:57.277Z,83.25
2023-01-05T07:20:24.153Z,82.29
2023-01-05T07:22:51.074Z,83.13
2023-01-05T07:25:18.285Z,82.71
2023-01-05T07:27:52.782Z,82.55
2023-01-05T07:30:19.754Z,83.05
2023-01-05T07:32:46.668Z,83.05
2023-01-05T07:35:13.526Z,82.81
2023-01-05T07:37:40.477Z,83.33
2023-01-05T07:40:08.363Z,83.30
2023-01-05T07:42:35.177Z,82.64
2023-01-05T07:45:02.440Z,82.52
2023-01-05T07:47:29.459Z,82.76
2023-01-05T07:49:56.280Z,83.52
2023-01-05T07:52:23.195Z,83.57
2023-01-05T07:54:50.079Z,83.39
2023-01-05T07:57:16.947Z,82.38
2023-01-05T07:59:43.754Z,82.74
2023-01-05T08:02:11.117Z,81.80
2023-01-05T08:04:38.217Z,81.49
2023-01-05T08:07:10.983Z,80.96
2023-01-05T08:09:57.968Z,81.44
2023-01-05T08:12:25.064Z,79.69
2023-01-05T08:14:51.911Z,80.09
2023-01-05T08:17:18.753Z,79.84
2023-01-05T08:19:46.628Z,79.09
2023-01-05T08:22:13.789Z,80.20
2023-01-05T08:24:40.659Z,79.58
2023-01-05T08:27:07.874Z,79.89
2023-01-05T08:29:34.772Z,78.99
2023-01-05T08:32:01.706Z,80.06
2023-01-05T08:34:34.292Z,79.41
2023-01-05T08:37:01.740Z,80.05
2023-01-05T08:39:28.644Z,79.56
2023-01-05T08:42:00.595Z,79.39
2023-01-05T08:44:29.332Z,79.89
2023-01-05T08:46:56.189Z,79.83
2023-01-05T08:49:24.109Z,78.92
2023-01-05T08:51:50.989Z,79.59
2023-01-05T08:54:17.851Z,79.73
2023-01-05T08:56:44.689Z,79.95
2023-01-05T08:59:14.612Z,80.09
2023-01-05T09:01:41.555Z,79.37
2023-01-05T09:04:08.665Z,80.29
2023-01-05T09:06:35.635Z,79.27
2023-01-05T09:09:02.704Z,79.79
2023-01-05T09:11:29.612Z,79.57
2023-01-05T09:13:59.339Z,79.23
2023-01-05T09:19:16.507Z,79.16
2023-01-05T09:21:44.434Z,78.71
2023-01-05T09:24:14.756Z,78.40
2023-01-05T09:26:42.917Z,78.18
2023-01-05T09:29:13.532Z,78.11
2023-01-05T09:31:41.555Z,77.20
2023-01-05T09:34:08.849Z,76.41
2023-01-05T09:36:38.594Z,76.72
2023-01-05T09:39:06.233Z,76.22
2023-01-05T09:41:48.018Z,75.94
2023-01-05T09:44:33.618Z,75.67
2023-01-05T09:47:41.639Z,76.03
2023-01-05T09:50:28.060Z,76.03
2023-01-05T09:52:59.485Z,75.74
2023-01-05T09:55:31.387Z,74.23
2023-01-05T09:58:11.966Z,74.44
2023-01-05T10:00:48.880Z,73.98
2023-01-05T10:03:53.523Z,73.69
2023-01-05T10:06:15.562Z,73.30
2023-01-05T10:08:50.031Z,72.93
2023-01-05T10:12:09.551Z,72.80
2023-01-05T10:14:47.182Z,72.55
2023-01-05T10:20:44.259Z,72.27
2023-01-05T10:23:31.347Z,72.63
2023-01-05T10:26:15.168Z,71.18
2023-01-05T10:28:56.659Z,71.16
2023-01-05T10:31:33.823Z,71.66
2023-01-05T10:34:20.497Z,70.96
2023-01-05T10:37:25.534Z,70.87
2023-01-05T10:40:38.333Z,69.75
2023-01-05T10:43:30.573Z,69.60
2023-01-05T10:46:29.921Z,69.46
2023-01-05T10:48:45.164Z,68.73
2023-01-05T10:51:12.009Z,68.30
2023-01-05T10:53:42.569Z,67.86
2023-01-05T10:56:28.207Z,67.80
2023-01-05T10:59:12.691Z,67.27
2023-01-05T11:01:45.947Z,67.00
2023-01-05T11:04:33.878Z,66.94
2023-01-05T11:07:07.668Z,67.24
2023-01-05T11:09:40.999Z,66.87
2023-01-05T11:12:20.220Z,67.19
2023-01-05T11:14:58.383Z,67.01
2023-01-05T11:17:28.439Z,67.29
2023-01-05T11:19:57.436Z,67.43
2023-01-05T11:22:36.445Z,68.12
2023-01-05T11:25:33.363Z,68.50
2023-01-05T11:28:17.565Z,69.22
2023-01-05T11:31:05.557Z,69.37
2023-01-05T11:33:36.405Z,69.68
2023-01-05T11:36:05.546Z,69.68
2023-01-05T11:38:33.001Z,70.08
2023-01-05T11:41:01.424Z,70.75
2023-01-05T11:43:32.194Z,70.31
2023-01-05T11:46:04.794Z,70.42
2023-01-05T11:48:35.812Z,69.75
2023-01-05T11:51:02.889Z,69.72
2023-01-05T11:53:37.933Z,70.08
2023-01-05T11:56:06.317Z,69.86
2023-01-05T11:58:57.649Z,69.52
2023-01-05T12:01:58.302Z,69.28
2023-01-05T12:05:18.552Z,68.44
2023-01-05T12:07:53.745Z,67.92
2023-01-05T12:10:37.967Z,67.31
2023-01-05T12:13:48.068Z,66.91
2023-01-05T12:16:43.012Z,67.02
2023-01-05T12:19:15.562Z,67.25
2023-01-05T12:22:02.423Z,67.24
2023-01-05T12:25:05.730Z,67.89
2023-01-05T12:28:24.030Z,68.53
2023-01-05T12:35:07.703Z,68.96
2023-01-05T12:38:05.998Z,68.73
2023-01-05T12:40:57.201Z,69.29
2023-01-05T12:44:02.283Z,69.15
2023-01-05T12:46:49.265Z,69.62
2023-01-05T12:49:52.937Z,69.40
2023-01-05T12:52:35.686Z,69.76
2023-01-05T12:55:20.581Z,70.13
2023-01-05T12:57:57.164Z,70.34
2023-01-05T13:00:26.272Z,70.26
2023-01-05T13:03:04.197Z,70.40
2023-01-05T13:06:14.385Z,70.22
2023-01-05T13:09:04.279Z,70.77
2023-01-05T13:12:08.919Z,70.83
2023-01-05T13:14:42.334Z,70.71
2023-01-05T13:17:24.046Z,70.95
2023-01-05T13:20:07.478Z,71.03
2023-01-05T13:22:39.015Z,70.94
2023-01-05T13:25:25.568Z,71.19
2023-01-05T13:27:52.430Z,70.94
2023-01-05T13:30:28.608Z,71.12
2023-01-05T13:33:22.462Z,71.24
2023-01-05T13:36:17.243Z,71.01
2023-01-05T13:39:12.878Z,70.84
2023-01-05T13:42:13.354Z,70.76
2023-01-05T13:45:15.675Z,70.70
2023-01-05T13:48:07.430Z,70.44
2023-01-05T13:51:09.511Z,70.39
2023-01-05T13:53:41.309Z,70.48
2023-01-05T13:56:30.181Z,70.20
2023-01-05T13:59:35.759Z,70.13
2023-01-05T14:02:28.368Z,70.08
2023-01-05T14:04:55.785Z,69.89
2023-01-05T14:07:23.207Z,69.74
2023-01-05T14:09:56.601Z,69.16
2023-01-05T14:12:47.781Z,69.28
2023-01-05T14:15:40.707Z,69.06
2023-01-05T14:18:50.707Z,69.32
2023-01-05T14:22:04.741Z,69.49
2023-01-05T14:24:47.345Z,68.75
2023-01-05T14:27:22.118Z,68.67
2023-01-05T14:32:41.279Z,68.79
2023-01-05T14:35:38.178Z,69.37
2023-01-05T14:38:22.248Z,69.21
2023-01-05T14:40:56.090Z,69.12
2023-01-05T14:43:31.062Z,69.07
2023-01-05T14:46:15.282Z,69.64
2023-01-05T14:48:59.637Z,69.99
2023-01-05T14:51:30.051Z,70.16
2023-01-05T14:54:03.044Z,72.16
2023-01-05T14:56:36.349Z,71.93
2023-01-05T14:59:12.742Z,71.83
2023-01-05T15:01:53.447Z,71.63
2023-01-05T15:04:31.464Z,71.54
2023-01-05T15:07:36.226Z,72.30
2023-01-05T15:10:44.782Z,72.46
2023-01-05T15:13:43.265Z,72.82
2023-01-05T15:16:59.522Z,73.89
2023-01-05T15:20:03.209Z,73.27
2023-01-05T15:23:14.919Z,73.27
2023-01-05T15:26:08.646Z,72.75
2023-01-05T15:29:15.952Z,72.21
2023-01-05T15:32:07.194Z,72.18
2023-01-05T15:34:52.179Z,72.06
2023-01-05T15:37:42.460Z,72.64
2023-01-05T15:40:21.485Z,73.03
2023-01-05T15:42:54.498Z,72.58
2023-01-05T15:45:31.924Z,73.20
2023-01-05T15:48:12.318Z,73.56
2023-01-05T15:50:55.545Z,73.40
2023-01-05T15:53:30.652Z,73.04
2023-01-05T15:55:58.309Z,73.94
2023-01-05T15:58:29.225Z,73.60
2023-01-05T16:01:14.986Z,73.43
2023-01-05T16:03:45.114Z,73.74
2023-01-05T16:06:24.426Z,74.29
2023-01-05T16:08:55.909Z,73.86
2023-01-05T16:11:36.779Z,73.92
2023-01-05T16:14:11.105Z,74.02
2023-01-05T16:16:55.950Z,74.00
2023-01-05T16:19:43.242Z,73.80
2023-01-05T16:22:38.839Z,73.54
2023-01-05T16:25:17.134Z,73.68
2023-01-05T16:27:50.486Z,74.35
2023-01-05T16:30:38.311Z,73.95
2023-01-05T16:33:14.960Z,74.41
2023-01-05T16:35:52.917Z,74.04
2023-01-05T16:38:29.292Z,74.26
2023-01-05T16:41:08.037Z,74.12
2023-01-05T16:43:39.369Z,74.89
2023-01-05T16:46:20.524Z,75.19
2023-01-05T16:49:16.570Z,75.41
2023-01-05T16:51:43.589Z,75.04
2023-01-05T16:54:37.336Z,75.46
2023-01-05T16:57:34.620Z,75.89
2023-01-05T17:00:02.170Z,75.65
2023-01-05T17:02:50.085Z,75.24
2023-01-05T17:05:20.963Z,75.39
2023-01-05T17:08:20.610Z,76.45
2023-01-05T17:10:48.022Z,76.19
2023-01-05T17:13:22.020Z,76.88
2023-01-05T17:15:51.177Z,77.33
2023-01-05T17:20:51.571Z,77.08
2023-01-05T17:23:36.619Z,77.43
2023-01-05T17:26:09.949Z,77.92
2023-01-05T17:28:38.269Z,77.70
2023-01-05T17:31:05.765Z,77.68
2023-01-05T17:33:32.947Z,77.55
2023-01-05T17:36:01.880Z,78.09
2023-01-05T17:38:28.758Z,77.99
2023-01-05T17:40:55.689Z,78.29
2023-01-05T17:43:22.681Z,78.43
2023-01-05T17:45:49.656Z,78.73
2023-01-05T17:48:16.913Z,79.25
2023-01-05T17:50:44.127Z,79.08
2023-01-05T17:53:11.179Z,78.85
2023-01-05T17:55:38.378Z,79.53
2023-01-05T17:58:05.278Z,79.26
2023-01-05T18:00:36.740Z,79.26
2023-01-05T18:03:03.675Z,79.51
2023-01-05T18:05:30.597Z,79.29
2023-01-05T18:07:57.441Z,79.57
2023-01-05T18:10:26.961Z,79.78
2023-01-05T18:12:55.939Z,79.44
2023-01-05T18:15:22.955Z,79.58
2023-01-05T18:17:49.820Z,79.35
2023-01-05T18:20:19.796Z,80.25
2023-01-05T18:22:48.801Z,79.68
2023-01-05T18:25:16.783Z,79.40
2023-01-05T18:27:43.666Z,79.73
2023-01-05T18:30:12.899Z,80.06
2023-01-05T18:32:40.529Z,81.14
2023-01-05T18:35:10.097Z,81.41
2023-01-05T18:37:40.065Z,81.20
2023-01-05T18:40:09.356Z,81.51
2023-01-05T18:42:38.595Z,81.03
2023-01-05T18:45:18.913Z,81.21
2023-01-05T18:47:47.259Z,80.78
2023-01-05T18:50:14.250Z,81.14
2023-01-05T18:52:41.342Z,82.03
2023-01-05T18:55:08.565Z,82.54
2023-01-05T18:57:36.204Z,82.89
2023-01-05T19:00:04.797Z,82.17
2023-01-05T19:02:31.822Z,82.38
2023-01-05T19:04:58.786Z,83.51
2023-01-05T19:07:28.803Z,84.27
2023-01-05T19:09:55.608Z,84.20
2023-01-05T19:12:22.460Z,84.44
2023-01-05T19:14:49.352Z,83.65
2023-01-05T19:17:16.364Z,84.63
2023-01-05T19:19:43.215Z,85.55
2023-01-05T19:22:12.689Z,85.66
2023-01-05T19:24:39.527Z,86.54
2023-01-05T19:27:06.401Z,87.00
2023-01-05T19:29:33.204Z,87.26
2023-01-05T19:32:00.040Z,87.94
2023-01-05T19:34:26.889Z,87.31
2023-01-05T19:36:53.708Z,88.42
2023-01-05T19:39:21.780Z,88.60
2023-01-05T19:41:53.142Z,88.17
2023-01-05T19:44:21.681Z,88.83
2023-01-05T19:46:51.773Z,88.14
2023-01-05T19:49:25.946Z,88.72
2023-01-05T19:51:53.835Z,88.51
2023-01-05T19:54:22.458Z,88.88
2023-01-05T19:56:49.444Z,89.59
2023-01-05T19:59:21.753Z,88.53
2023-01-05T20:01:48.969Z,89.11
2023-01-05T20:04:16.044Z,90.37
2023-01-05T20:06:45.526Z,90.52
2023-01-05T20:09:16.454Z,91.11
2023-01-05T20:11:47.656Z,91.42
2023-01-05T20:14:19.094Z,91.71
2023-01-05T20:16:53.264Z,92.38
2023-01-05T20:19:21.567Z,92.57
2023-01-05T20:21:50.628Z,93.55
2023-01-05T20:24:24.536Z,93.64
2023-01-05T20:26:56.488Z,93.88
2023-01-05T20:29:24.672Z,94.06
2023-01-05T20:32:03.077Z,94.95
2023-01-05T20:34:32.286Z,95.44
2023-01-05T20:37:00.523Z,96.25
2023-01-05T20:39:27.573Z,95.84
2023-01-05T20:41:54.785Z,96.02
2023-01-05T20:44:25.456Z,97.00
2023-01-05T20:46:54.341Z,96.77
2023-01-05T20:49:22.078Z,96.78
2023-01-05T20:51:49.468Z,97.17
2023-01-05T20:54:16.506Z,98.82
2023-01-05T20:56:46.339Z,98.28
2023-01-05T20:59:22.966Z,100.00
2023-01-05T21:01:51.184Z,99.74
2023-01-05T21:04:22.023Z,100.00
2023-01-05T21:06:51.393Z,100.00
2023-01-05T21:09:18.409Z,100.00
2023-01-05T21:11:45.849Z,100.00
2023-01-05T21:14:17.440Z,100.00
2023-01-05T21:16:51.085Z,100.00
2023-01-05T21:19:22.998Z,100.00
2023-01-05T21:21:55.395Z,100.00
2023-01-05T21:24:23.781Z,100.00
2023-01-05T21:26:51.191Z,100.00
2023-01-05T21:29:21.790Z,100.00
2023-01-05T21:31:49.922Z,100.00
2023-01-05T21:34:16.955Z,100.00
2023-01-05T21:36:48.889Z,100.00
2023-01-05T21:39:23.179Z,100.00
2023-01-05T21:42:10.712Z,100.00
2023-01-05T21:44:37.981Z,100.00
2023-01-05T21:47:06.568Z,100.00
2023-01-05T21:49:36.573Z,100.00
2023-01-05T21:52:22.917Z,100.00
2023-01-05T21:55:09.165Z,100.00
2023-01-05T21:57:36.130Z,100.00
2023-01-05T22:00:04.143Z,100.00
2023-01-05T22:02:30.925Z,100.00
2023-01-05T22:04:57.737Z,100.00
2023-01-05T22:07:27.571Z,100.00
2023-01-05T22:09:54.411Z,100.00
2023-01-05T22:12:21.309Z,100.00
2023-01-05T22:14:48.145Z,100.00
2023-01-05T22:17:14.973Z,100.00
2023-01-05T22:19:41.820Z,100.00
2023-01-05T22:22:08.727Z,100.00
2023-01-05T22:24:35.534Z,100.00
2023-01-05T22:27:02.544Z,100.00
2023-01-05T22:29:29.373Z,100.00
2023-01-05T22:31:58.396Z,100.00
2023-01-05T22:34:25.988Z,100.00
2023-01-05T22:36:53.389Z,100.00
2023-01-05T22:39:21.767Z,100.00
2023-01-05T22:41:49.931Z,100.00
2023-01-05T22:44:17.376Z,100.00
2023-01-05T22:46:44.301Z,100.00
2023-01-05T22:49:16.373Z,100.00
2023-01-05T22:51:46.351Z,100.00
2023-01-05T22:54:13.524Z,100.00
2023-01-05T22:56:40.421Z,100.00
2023-01-05T22:59:08.196Z,100.00
2023-01-05T23:01:43.163Z,100.00
2023-01-05T23:04:10.481Z,100.00
2023-01-05T23:06:37.568Z,100.00
2023-01-05T23:09:07.047Z,100.00
2023-01-05T23:11:37.596Z,100.00
2023-01-05T23:14:06.836Z,100.00
2023-01-05T23:16:35.251Z,100.00
2023-01-05T23:19:04.259Z,100.00
2023-01-05T23:21:31.580Z,100.00
2023-01-05T23:23:59.345Z,100.00
2023-01-05T23:26:27.691Z,100.00
2023-01-05T23:28:54.819Z,100.00
2023-01-05T23:31:21.807Z,100.00
2023-01-05T23:33:49.365Z,100.00
2023-01-05T23:36:18.852Z,100.00
2023-01-05T23:38:46.493Z,100.00
2023-01-05T23:41:15.575Z,100.00
2023-01-05T23:43:45.097Z,100.00
2023-01-05T23:46:21.925Z,100.00
2023-01-05T23:48:50.934Z,100.00
2023-01-05T23:51:18.540Z,100.00
2023-01-05T23:53:49.307Z,100.00
2023-01-05T23:56:28.765Z,100.00
2023-01-05T23:59:05.789Z,100.00
